createdAt,value
2018-06-30T00:01:42.917Z,19.84
2018-06-30T00:04:11.356Z,19.84
2018-06-30T00:06:39.875Z,19.84
2018-06-30T00:09:09.498Z,19.81
2018-06-30T00:11:38.291Z,19.75
2018-06-30T00:14:06.878Z,19.71
2018-06-30T00:16:35.461Z,19.69
2018-06-30T00:19:04.129Z,19.65
2018-06-30T00:21:32.574Z,19.63
2018-06-30T00:24:01.098Z,19.59
2018-06-30T00:26:29.528Z,19.59
2018-06-30T00:28:58.059Z,19.54
2018-06-30T00:31:26.475Z,19.48
2018-06-30T00:33:55.041Z,19.41
2018-06-30T00:36:23.954Z,19.35
2018-06-30T00:38:52.438Z,19.27
2018-06-30T00:41:20.967Z,19.21
2018-06-30T00:43:49.429Z,19.15
2018-06-30T00:46:17.950Z,19.10
2018-06-30T00:48:46.471Z,19.07
2018-06-30T00:51:14.997Z,19.05
2018-06-30T00:53:43.505Z,19.07
2018-06-30T00:56:13.591Z,19.15
2018-06-30T00:58:42.082Z,19.22
2018-06-30T01:01:10.619Z,19.25
2018-06-30T01:03:39.317Z,19.29
2018-06-30T01:06:07.907Z,19.26
2018-06-30T01:08:36.418Z,19.20
2018-06-30T01:11:04.932Z,19.14
2018-06-30T01:13:33.519Z,19.10
2018-06-30T01:16:02.050Z,19.09
2018-06-30T01:18:30.502Z,19.02
2018-06-30T01:20:59.014Z,18.95
2018-06-30T01:23:27.475Z,18.86
2018-06-30T01:25:56.137Z,18.75
2018-06-30T01:28:25.109Z,18.64
2018-06-30T01:30:54.157Z,18.56
2018-06-30T01:33:22.734Z,18.49
2018-06-30T01:35:51.208Z,18.50
2018-06-30T01:38:19.782Z,18.50
2018-06-30T01:40:48.327Z,18.50
2018-06-30T01:43:16.759Z,18.46
2018-06-30T01:45:45.242Z,18.44
2018-06-30T01:49:16.965Z,18.38
2018-06-30T01:51:45.498Z,18.25
2018-06-30T01:54:14.029Z,18.21
2018-06-30T02:02:53.992Z,18.03
2018-06-30T02:05:22.686Z,18.02
2018-06-30T02:07:51.123Z,17.98
2018-06-30T02:10:19.766Z,17.97
2018-06-30T02:12:48.359Z,17.98
2018-06-30T02:15:18.546Z,17.99
2018-06-30T02:17:47.035Z,17.97
2018-06-30T02:20:15.622Z,17.96
2018-06-30T02:22:44.074Z,17.96
2018-06-30T02:25:12.551Z,17.93
2018-06-30T02:27:41.077Z,17.88
2018-06-30T02:30:09.534Z,17.86
2018-06-30T02:32:37.986Z,17.86
2018-06-30T02:35:06.507Z,17.88
2018-06-30T02:37:35.002Z,17.92
2018-06-30T02:40:03.670Z,17.91
2018-06-30T02:42:32.131Z,17.93
2018-06-30T02:45:00.650Z,17.86
2018-06-30T02:47:29.842Z,17.76
2018-06-30T02:49:58.325Z,17.67
2018-06-30T02:52:27.142Z,17.63
2018-06-30T02:54:56.235Z,17.56
2018-06-30T02:57:24.980Z,17.51
2018-06-30T02:59:53.423Z,17.49
2018-06-30T03:02:21.988Z,17.44
2018-06-30T03:04:50.619Z,17.40
2018-06-30T03:07:19.278Z,17.37
2018-06-30T03:09:47.823Z,17.35
2018-06-30T03:12:16.316Z,17.32
2018-06-30T03:14:44.859Z,17.31
2018-06-30T03:17:17.438Z,17.30
2018-06-30T03:19:45.887Z,17.29
2018-06-30T03:22:14.415Z,17.25
2018-06-30T03:24:42.944Z,17.23
2018-06-30T03:27:11.517Z,17.20
2018-06-30T03:29:40.175Z,17.17
2018-06-30T03:32:08.627Z,17.15
2018-06-30T03:34:37.090Z,17.13
2018-06-30T03:37:06.066Z,17.08
2018-06-30T03:39:34.631Z,17.01
2018-06-30T03:42:03.142Z,17.01
2018-06-30T03:44:31.651Z,17.01
2018-06-30T03:47:00.305Z,17.00
2018-06-30T03:49:28.835Z,16.98
2018-06-30T03:51:57.429Z,16.95
2018-06-30T03:54:25.890Z,16.93
2018-06-30T03:56:54.526Z,16.94
2018-06-30T03:59:23.169Z,17.00
2018-06-30T04:01:51.746Z,17.04
2018-06-30T04:04:20.476Z,17.08
2018-06-30T04:06:49.127Z,17.10
2018-06-30T04:09:17.607Z,17.18
2018-06-30T04:11:46.043Z,17.23
2018-06-30T04:14:14.538Z,17.27
2018-06-30T04:16:43.078Z,17.34
2018-06-30T04:19:14.471Z,17.38
2018-06-30T04:21:46.182Z,17.41
2018-06-30T04:24:14.628Z,17.46
2018-06-30T04:26:43.764Z,17.50
2018-06-30T04:29:13.003Z,17.60
2018-06-30T04:31:41.482Z,17.62
2018-06-30T04:34:10.018Z,17.64
2018-06-30T04:36:38.474Z,17.65
2018-06-30T04:39:08.099Z,17.70
2018-06-30T04:41:36.580Z,17.77
2018-06-30T04:44:05.256Z,17.83
2018-06-30T04:46:33.922Z,17.89
2018-06-30T04:49:02.390Z,17.96
2018-06-30T04:51:30.881Z,18.03
2018-06-30T04:54:02.832Z,18.12
2018-06-30T04:56:31.330Z,18.20
2018-06-30T04:58:59.995Z,18.31
2018-06-30T05:01:28.490Z,18.43
2018-06-30T05:03:56.998Z,18.57
2018-06-30T05:06:25.574Z,18.69
2018-06-30T05:08:54.025Z,18.83
2018-06-30T05:11:22.765Z,18.88
2018-06-30T05:13:51.386Z,18.95
2018-06-30T05:16:20.411Z,19.00
2018-06-30T05:18:49.003Z,19.02
2018-06-30T05:21:17.584Z,19.08
2018-06-30T05:23:46.091Z,19.15
2018-06-30T05:26:14.694Z,19.22
2018-06-30T05:28:43.370Z,19.29
2018-06-30T05:31:11.921Z,19.38
2018-06-30T05:33:40.580Z,19.44
2018-06-30T05:36:08.950Z,19.50
2018-06-30T05:38:37.387Z,19.52
2018-06-30T05:41:06.241Z,19.55
2018-06-30T05:43:34.656Z,19.62
2018-06-30T05:46:03.199Z,19.72
2018-06-30T05:48:31.635Z,19.80
2018-06-30T05:51:00.159Z,19.90
2018-06-30T05:53:28.622Z,20.04
2018-06-30T05:55:57.255Z,20.11
2018-06-30T05:58:25.974Z,20.21
2018-06-30T06:00:54.499Z,20.29
2018-06-30T06:03:22.987Z,20.36
2018-06-30T06:05:51.487Z,20.48
2018-06-30T06:08:20.076Z,20.58
2018-06-30T06:10:48.572Z,20.63
2018-06-30T06:13:17.080Z,20.71
2018-06-30T06:15:45.722Z,20.77
2018-06-30T06:18:14.338Z,20.82
2018-06-30T06:20:42.860Z,20.92
2018-06-30T06:23:11.379Z,20.99
2018-06-30T06:25:39.913Z,21.03
2018-06-30T06:28:08.799Z,21.13
2018-06-30T06:30:37.911Z,21.19
2018-06-30T06:33:06.834Z,21.25
2018-06-30T06:35:35.386Z,21.27
2018-06-30T06:38:03.929Z,21.37
2018-06-30T06:40:32.448Z,21.47
2018-06-30T06:43:00.988Z,21.53
2018-06-30T06:45:29.462Z,21.65
2018-06-30T06:47:58.001Z,21.75
2018-06-30T06:50:26.559Z,21.79
2018-06-30T06:52:55.087Z,21.91
2018-06-30T06:55:23.649Z,22.04
2018-06-30T06:57:52.099Z,22.18
2018-06-30T07:00:20.622Z,22.30
2018-06-30T07:02:49.098Z,22.31
2018-06-30T07:05:17.545Z,22.42
2018-06-30T07:07:46.024Z,22.45
2018-06-30T07:10:14.485Z,22.56
2018-06-30T07:12:43.016Z,22.68
2018-06-30T07:15:11.615Z,22.86
2018-06-30T07:17:40.063Z,22.95
2018-06-30T07:20:08.610Z,23.01
2018-06-30T07:22:37.118Z,23.03
2018-06-30T07:25:05.606Z,23.08
2018-06-30T07:27:34.087Z,23.23
2018-06-30T07:30:02.617Z,23.38
2018-06-30T07:32:31.278Z,23.52
2018-06-30T07:34:59.896Z,23.62
2018-06-30T07:37:28.438Z,23.70
2018-06-30T07:39:56.871Z,23.70
2018-06-30T07:42:25.374Z,23.75
2018-06-30T07:44:54.006Z,23.79
2018-06-30T07:47:22.542Z,23.93
2018-06-30T07:49:52.850Z,24.02
2018-06-30T07:52:21.481Z,24.20
2018-06-30T07:54:50.999Z,24.35
2018-06-30T07:57:19.494Z,24.50
2018-06-30T07:59:48.025Z,24.61
2018-06-30T08:02:16.512Z,24.69
2018-06-30T08:04:44.966Z,24.64
2018-06-30T08:07:13.590Z,24.66
2018-06-30T08:09:42.288Z,24.78
2018-06-30T08:12:10.830Z,24.91
2018-06-30T08:14:39.310Z,24.97
2018-06-30T08:17:07.816Z,25.02
2018-06-30T08:19:36.393Z,25.20
2018-06-30T08:22:04.966Z,25.18
2018-06-30T08:24:33.422Z,25.29
2018-06-30T08:27:01.964Z,25.36
2018-06-30T08:29:30.731Z,25.52
2018-06-30T08:31:59.154Z,25.61
2018-06-30T08:34:27.666Z,25.87
2018-06-30T08:36:56.150Z,25.87
2018-06-30T08:39:24.703Z,25.93
2018-06-30T08:41:53.323Z,26.18
2018-06-30T08:44:22.006Z,26.29
2018-06-30T08:46:50.459Z,26.46
2018-06-30T08:49:18.963Z,26.59
2018-06-30T08:51:47.443Z,26.68
2018-06-30T08:54:16.089Z,26.88
2018-06-30T08:56:44.641Z,26.98
2018-06-30T08:59:13.092Z,27.07
2018-06-30T09:01:41.623Z,27.11
2018-06-30T09:04:10.248Z,27.24
2018-06-30T09:06:38.821Z,27.63
2018-06-30T09:09:09.627Z,27.90
2018-06-30T09:11:38.227Z,27.98
2018-06-30T09:14:06.852Z,28.12
2018-06-30T09:16:35.411Z,28.30
2018-06-30T09:19:04.114Z,28.59
2018-06-30T09:21:32.722Z,28.61
2018-06-30T09:24:01.286Z,28.82
2018-06-30T09:26:32.770Z,29.06
2018-06-30T09:29:01.235Z,29.22
2018-06-30T09:31:29.912Z,29.46
2018-06-30T09:33:58.432Z,29.74
2018-06-30T09:36:27.014Z,29.91
2018-06-30T09:38:55.462Z,29.87
2018-06-30T09:41:24.123Z,29.97
2018-06-30T09:43:52.602Z,30.17
2018-06-30T09:46:21.208Z,30.02
2018-06-30T09:48:49.646Z,30.29
2018-06-30T09:51:18.167Z,31.01
2018-06-30T09:53:46.662Z,31.75
2018-06-30T09:56:15.200Z,32.20
2018-06-30T09:58:43.815Z,32.46
2018-06-30T10:01:12.283Z,32.87
2018-06-30T10:03:40.778Z,33.23
2018-06-30T10:06:09.301Z,33.44
2018-06-30T10:08:37.826Z,33.79
2018-06-30T10:11:07.085Z,34.09
2018-06-30T10:13:35.647Z,34.50
2018-06-30T10:16:04.182Z,34.65
2018-06-30T10:18:32.811Z,34.51
2018-06-30T10:21:01.429Z,34.92
2018-06-30T10:23:30.092Z,35.55
2018-06-30T10:25:58.584Z,34.72
2018-06-30T10:28:27.144Z,34.97
2018-06-30T10:30:55.636Z,34.94
2018-06-30T10:33:24.161Z,35.20
2018-06-30T10:35:52.731Z,35.13
2018-06-30T10:38:21.243Z,35.46
2018-06-30T10:40:49.819Z,35.52
2018-06-30T10:43:18.498Z,35.04
2018-06-30T10:45:46.995Z,34.57
2018-06-30T10:48:15.427Z,33.46
2018-06-30T10:50:43.850Z,33.50
2018-06-30T10:53:12.348Z,34.13
2018-06-30T10:55:40.823Z,35.19
2018-06-30T10:58:09.386Z,35.93
2018-06-30T11:00:38.018Z,36.64
2018-06-30T11:03:06.776Z,36.64
2018-06-30T11:05:35.243Z,37.14
2018-06-30T11:08:03.810Z,34.82
2018-06-30T11:10:32.407Z,34.41
2018-06-30T11:13:00.926Z,35.08
2018-06-30T11:15:29.430Z,35.40
2018-06-30T11:17:57.972Z,36.27
2018-06-30T11:20:26.555Z,36.18
2018-06-30T11:22:55.060Z,36.78
2018-06-30T11:25:23.594Z,37.94
2018-06-30T11:27:52.160Z,38.51
2018-06-30T11:30:20.761Z,38.50
2018-06-30T11:32:49.323Z,38.35
2018-06-30T11:35:17.746Z,37.89
2018-06-30T11:37:46.254Z,38.11
2018-06-30T11:40:14.702Z,38.83
2018-06-30T11:42:43.230Z,39.58
2018-06-30T11:45:11.743Z,40.15
2018-06-30T11:47:40.270Z,40.18
2018-06-30T11:50:08.882Z,40.45
2018-06-30T11:52:37.432Z,40.81
2018-06-30T11:55:06.347Z,40.19
2018-06-30T11:57:34.888Z,41.17
2018-06-30T12:00:03.481Z,40.78
2018-06-30T12:02:32.044Z,40.61
2018-06-30T12:05:00.526Z,41.30
2018-06-30T12:07:29.050Z,41.00
2018-06-30T12:09:57.631Z,41.02
2018-06-30T12:12:26.099Z,41.67
2018-06-30T12:14:54.607Z,42.64
2018-06-30T12:17:23.040Z,42.63
2018-06-30T12:19:51.627Z,43.40
2018-06-30T12:22:20.256Z,42.89
2018-06-30T12:24:48.834Z,43.02
2018-06-30T12:27:17.355Z,43.01
2018-06-30T12:29:45.862Z,43.59
2018-06-30T12:32:14.437Z,43.60
2018-06-30T12:34:42.870Z,43.67
2018-06-30T12:37:11.383Z,44.03
2018-06-30T12:39:40.112Z,43.11
2018-06-30T12:42:08.707Z,43.12
2018-06-30T12:44:37.223Z,44.03
2018-06-30T12:47:05.883Z,44.93
2018-06-30T12:49:34.528Z,45.31
2018-06-30T12:52:03.071Z,45.37
2018-06-30T12:54:31.670Z,44.33
2018-06-30T12:56:59.973Z,45.61
2018-06-30T12:59:28.462Z,44.99
2018-06-30T13:01:56.947Z,46.34
2018-06-30T13:04:25.568Z,46.60
2018-06-30T13:06:54.003Z,45.66
2018-06-30T13:09:22.536Z,46.24
2018-06-30T13:11:51.059Z,46.15
2018-06-30T13:14:19.588Z,45.87
2018-06-30T13:16:48.048Z,47.12
2018-06-30T13:19:16.529Z,46.34
2018-06-30T13:21:45.025Z,46.33
2018-06-30T13:24:13.559Z,46.94
2018-06-30T13:26:42.095Z,46.71
2018-06-30T13:29:10.691Z,47.48
2018-06-30T13:31:39.182Z,48.37
2018-06-30T13:34:08.815Z,46.56
2018-06-30T13:36:37.303Z,47.60
2018-06-30T13:39:09.606Z,47.84
2018-06-30T13:41:38.128Z,47.65
2018-06-30T13:44:07.017Z,47.63
2018-06-30T13:46:35.480Z,48.05
2018-06-30T13:49:03.985Z,47.49
2018-06-30T13:51:32.602Z,46.22
2018-06-30T13:54:01.128Z,46.67
2018-06-30T13:56:29.606Z,46.46
2018-06-30T13:58:58.206Z,46.65
2018-06-30T14:01:26.835Z,47.23
2018-06-30T14:03:55.343Z,47.65
2018-06-30T14:06:24.058Z,47.88
2018-06-30T14:08:52.522Z,47.59
2018-06-30T14:11:21.122Z,48.10
2018-06-30T14:13:49.547Z,47.45
2018-06-30T14:16:18.086Z,47.51
2018-06-30T14:18:46.628Z,48.17
2018-06-30T14:21:15.234Z,48.72
2018-06-30T14:23:43.734Z,47.18
2018-06-30T14:26:12.228Z,48.91
2018-06-30T14:28:40.836Z,49.04
2018-06-30T14:31:09.471Z,47.69
2018-06-30T14:33:37.954Z,47.51
2018-06-30T14:36:06.467Z,47.38
2018-06-30T14:38:35.071Z,47.25
2018-06-30T14:41:07.451Z,47.79
2018-06-30T14:43:35.941Z,48.69
2018-06-30T14:46:04.620Z,48.48
2018-06-30T14:48:33.151Z,47.39
2018-06-30T14:51:01.675Z,47.01
2018-06-30T14:53:30.198Z,47.94
2018-06-30T14:55:59.244Z,45.56
2018-06-30T14:58:27.783Z,46.92
2018-06-30T15:00:56.295Z,47.88
2018-06-30T15:03:24.869Z,46.09
2018-06-30T15:05:53.318Z,45.99
2018-06-30T15:08:21.937Z,46.97
2018-06-30T15:10:50.551Z,48.37
2018-06-30T15:13:19.141Z,48.04
2018-06-30T15:15:47.819Z,47.06
2018-06-30T15:18:16.437Z,45.85
2018-06-30T15:20:44.955Z,45.79
2018-06-30T15:23:13.578Z,45.63
2018-06-30T15:25:42.105Z,45.76
2018-06-30T15:28:10.598Z,45.82
2018-06-30T15:30:39.076Z,46.16
2018-06-30T15:33:07.605Z,46.61
2018-06-30T15:35:36.127Z,46.51
2018-06-30T15:38:04.694Z,45.37
2018-06-30T15:40:33.231Z,46.13
2018-06-30T15:43:02.045Z,45.39
2018-06-30T15:45:30.584Z,45.57
2018-06-30T15:47:59.120Z,46.59
2018-06-30T15:50:27.715Z,46.94
2018-06-30T15:52:56.283Z,46.12
2018-06-30T15:55:25.106Z,46.75
2018-06-30T15:57:53.622Z,46.49
2018-06-30T16:00:22.179Z,46.59
2018-06-30T16:02:50.960Z,45.69
2018-06-30T16:05:19.637Z,45.02
2018-06-30T16:07:48.405Z,43.35
2018-06-30T16:10:16.927Z,45.19
2018-06-30T16:12:45.571Z,46.73
2018-06-30T16:15:14.035Z,46.41
2018-06-30T16:17:42.564Z,46.32
2018-06-30T16:20:11.127Z,46.91
2018-06-30T16:22:39.748Z,46.25
2018-06-30T16:25:08.598Z,45.17
2018-06-30T16:27:37.086Z,45.15
2018-06-30T16:30:06.918Z,45.17
2018-06-30T16:32:35.839Z,45.97
2018-06-30T16:35:04.498Z,45.44
2018-06-30T16:37:33.146Z,44.18
2018-06-30T16:40:01.752Z,44.51
2018-06-30T16:42:30.353Z,43.64
2018-06-30T16:44:58.919Z,43.39
2018-06-30T16:47:27.668Z,44.61
2018-06-30T16:49:56.335Z,44.40
2018-06-30T16:52:24.860Z,43.67
2018-06-30T16:54:53.988Z,43.75
2018-06-30T16:57:22.569Z,43.72
2018-06-30T16:59:51.105Z,44.37
2018-06-30T17:02:19.606Z,43.90
2018-06-30T17:04:48.156Z,45.29
2018-06-30T17:07:16.666Z,44.33
2018-06-30T17:09:45.278Z,45.05
2018-06-30T17:12:13.819Z,44.17
2018-06-30T17:14:43.371Z,43.30
2018-06-30T17:17:11.945Z,42.83
2018-06-30T17:19:40.576Z,42.68
2018-06-30T17:22:09.139Z,41.91
2018-06-30T17:24:37.739Z,42.62
2018-06-30T17:27:06.572Z,42.81
2018-06-30T17:29:35.078Z,42.78
2018-06-30T17:32:03.667Z,43.09
2018-06-30T17:34:32.134Z,41.97
2018-06-30T17:37:00.647Z,42.27
2018-06-30T17:39:29.195Z,42.01
2018-06-30T17:41:57.797Z,41.75
2018-06-30T17:44:26.426Z,41.54
2018-06-30T17:46:54.985Z,40.32
2018-06-30T17:49:23.674Z,40.59
2018-06-30T17:51:52.295Z,39.91
2018-06-30T17:54:20.871Z,39.09
2018-06-30T17:56:49.420Z,39.81
2018-06-30T17:59:18.095Z,38.73
2018-06-30T18:01:46.704Z,38.67
2018-06-30T18:04:15.381Z,38.21
2018-06-30T18:06:43.942Z,37.30
2018-06-30T18:09:12.913Z,35.74
2018-06-30T18:11:42.207Z,33.94
2018-06-30T18:14:10.886Z,32.86
2018-06-30T18:16:39.473Z,32.05
2018-06-30T18:19:08.087Z,31.70
2018-06-30T18:21:36.596Z,31.37
2018-06-30T18:25:29.623Z,31.16
2018-06-30T18:27:58.226Z,30.84
2018-06-30T18:30:27.036Z,30.63
2018-06-30T18:32:55.583Z,30.41
2018-06-30T18:35:24.355Z,30.24
2018-06-30T18:37:52.811Z,30.11
2018-06-30T18:40:21.467Z,30.05
2018-06-30T18:42:49.996Z,29.92
2018-06-30T18:45:18.515Z,29.77
2018-06-30T18:47:47.246Z,29.73
2018-06-30T18:50:15.799Z,29.61
2018-06-30T18:52:44.369Z,29.45
2018-06-30T18:55:13.007Z,29.36
2018-06-30T18:57:41.524Z,29.26
2018-06-30T19:00:10.556Z,29.10
2018-06-30T19:02:39.096Z,28.97
2018-06-30T19:05:07.959Z,28.95
2018-06-30T19:07:36.554Z,28.91
2018-06-30T19:10:05.273Z,28.85
2018-06-30T19:12:38.755Z,28.72
2018-06-30T19:15:07.308Z,28.61
2018-06-30T19:17:35.807Z,28.46
2018-06-30T19:20:05.081Z,28.30
2018-06-30T19:22:33.615Z,28.21
2018-06-30T19:25:02.224Z,28.06
2018-06-30T19:27:30.791Z,27.88
2018-06-30T19:30:03.376Z,27.85
2018-06-30T19:32:31.913Z,27.76
2018-06-30T19:35:00.409Z,27.66
2018-06-30T19:37:28.998Z,27.58
2018-06-30T19:39:57.460Z,27.47
2018-06-30T19:42:26.199Z,27.31
2018-06-30T19:44:54.659Z,27.22
2018-06-30T19:47:23.352Z,27.25
2018-06-30T19:49:51.914Z,27.26
2018-06-30T19:52:20.443Z,27.19
2018-06-30T19:54:48.968Z,27.15
2018-06-30T19:57:17.459Z,27.12
2018-06-30T19:59:46.205Z,27.06
2018-06-30T20:02:14.794Z,27.04
2018-06-30T20:04:44.806Z,26.97
2018-06-30T20:07:13.426Z,26.88
2018-06-30T20:09:41.923Z,26.71
2018-06-30T20:12:10.540Z,26.62
2018-06-30T20:14:39.084Z,26.61
2018-06-30T20:17:07.588Z,26.57
2018-06-30T20:19:36.145Z,26.45
2018-06-30T20:22:04.791Z,26.36
2018-06-30T20:24:33.343Z,26.30
2018-06-30T20:27:02.083Z,26.18
2018-06-30T20:29:30.733Z,26.06
2018-06-30T20:31:59.459Z,26.00
2018-06-30T20:34:28.054Z,25.91
2018-06-30T20:36:56.949Z,25.80
2018-06-30T20:39:26.011Z,25.69
2018-06-30T20:41:54.709Z,25.63
2018-06-30T20:44:23.417Z,25.56
2018-06-30T20:46:51.992Z,25.54
2018-06-30T20:49:20.536Z,25.46
2018-06-30T20:51:49.167Z,25.35
2018-06-30T20:54:17.652Z,25.29
2018-06-30T20:56:46.159Z,25.17
2018-06-30T20:59:14.834Z,25.04
2018-06-30T21:01:43.425Z,25.00
2018-06-30T21:04:11.980Z,24.98
2018-06-30T21:06:40.527Z,24.90
2018-06-30T21:09:10.520Z,24.85
2018-06-30T21:11:39.080Z,24.75
2018-06-30T21:14:07.617Z,24.68
2018-06-30T21:16:36.173Z,24.57
2018-06-30T21:19:04.792Z,24.49
2018-06-30T21:21:33.437Z,24.42
2018-06-30T21:24:02.171Z,24.37
2018-06-30T21:26:30.633Z,24.27
2018-06-30T21:28:59.166Z,24.22
2018-06-30T21:31:27.614Z,24.15
2018-06-30T21:33:56.095Z,24.09
2018-06-30T21:36:24.736Z,24.03
2018-06-30T21:38:53.426Z,24.03
2018-06-30T21:41:21.965Z,24.12
2018-06-30T21:43:50.471Z,23.97
2018-06-30T21:46:19.003Z,23.82
2018-06-30T21:48:47.543Z,23.74
2018-06-30T21:53:50.647Z,23.63
2018-06-30T21:56:19.229Z,23.54
2018-06-30T21:58:47.793Z,23.48
2018-06-30T22:01:21.664Z,23.44
2018-06-30T22:03:50.244Z,23.35
2018-06-30T22:06:18.792Z,23.30
2018-06-30T22:09:17.999Z,23.24
2018-06-30T22:11:46.615Z,23.20
2018-06-30T22:14:15.412Z,23.14
2018-06-30T22:16:43.904Z,23.11
2018-06-30T22:19:12.644Z,23.10
2018-06-30T22:21:41.115Z,23.07
2018-06-30T22:24:09.643Z,22.96
2018-06-30T22:26:38.094Z,22.93
2018-06-30T22:29:06.740Z,22.86
2018-06-30T22:31:35.398Z,22.83
2018-06-30T22:34:04.143Z,22.77
2018-06-30T22:36:32.792Z,22.72
2018-06-30T22:39:01.373Z,22.65
2018-06-30T22:41:30.187Z,22.61
2018-06-30T22:43:58.686Z,22.54
2018-06-30T22:46:27.190Z,22.51
2018-06-30T22:48:55.755Z,22.45
2018-06-30T22:51:24.924Z,22.39
2018-06-30T22:53:53.459Z,22.36
2018-06-30T22:56:22.004Z,22.31
2018-06-30T23:01:19.061Z,22.23
2018-06-30T23:03:47.571Z,22.21
2018-06-30T23:06:16.095Z,22.16
2018-06-30T23:08:49.951Z,22.20
2018-06-30T23:11:18.443Z,22.14
2018-06-30T23:13:46.936Z,22.11
2018-06-30T23:16:15.431Z,22.05
2018-06-30T23:18:43.984Z,22.00
2018-06-30T23:21:12.599Z,21.93
2018-06-30T23:23:41.048Z,21.86
2018-06-30T23:26:09.555Z,21.79
2018-06-30T23:28:38.058Z,21.75
2018-06-30T23:31:06.647Z,21.74
2018-06-30T23:33:35.166Z,21.83
2018-06-30T23:36:05.281Z,21.78
2018-06-30T23:38:33.910Z,21.72
2018-06-30T23:41:02.422Z,21.68
2018-06-30T23:43:30.958Z,21.61
2018-06-30T23:45:59.466Z,21.51
2018-06-30T23:48:28.007Z,21.42
2018-06-30T23:50:56.571Z,21.35
2018-06-30T23:53:25.167Z,21.33
2018-06-30T23:55:53.853Z,21.34
2018-06-30T23:58:22.547Z,21.27
